createdAt,value
2022-08-21T00:00:46.880Z,23.20
2022-08-21T00:03:18.289Z,23.30
2022-08-21T00:05:51.757Z,23.30
2022-08-21T00:08:22.801Z,23.50
2022-08-21T00:10:53.768Z,23.10
2022-08-21T00:13:24.779Z,23.10
2022-08-21T00:15:55.894Z,23.00
2022-08-21T00:18:27.489Z,22.90
2022-08-21T00:20:58.485Z,23.20
2022-08-21T00:23:29.395Z,23.10
2022-08-21T00:26:00.587Z,23.20
2022-08-21T00:28:31.939Z,22.90
2022-08-21T00:31:04.917Z,22.90
2022-08-21T00:33:35.901Z,23.00
2022-08-21T00:36:07.192Z,22.90
2022-08-21T00:38:38.501Z,23.50
2022-08-21T00:41:18.971Z,23.30
2022-08-21T00:44:04.748Z,23.30
2022-08-21T00:46:36.378Z,23.10
2022-08-21T00:49:09.760Z,23.10
2022-08-21T00:51:50.644Z,22.90
2022-08-21T00:54:26.143Z,22.60
2022-08-21T00:57:05.691Z,22.80
2022-08-21T00:59:39.706Z,22.60
2022-08-21T01:02:11.393Z,22.60
2022-08-21T01:04:45.945Z,22.80
2022-08-21T01:07:18.295Z,23.00
2022-08-21T01:09:50.852Z,23.20
2022-08-21T01:12:21.955Z,23.10
2022-08-21T01:14:53.146Z,23.00
2022-08-21T01:17:24.291Z,23.00
2022-08-21T01:20:00.236Z,23.00
2022-08-21T01:22:31.263Z,23.00
2022-08-21T01:25:04.605Z,23.10
2022-08-21T01:27:36.231Z,23.20
2022-08-21T01:30:23.616Z,23.70
2022-08-21T01:32:56.806Z,23.60
2022-08-21T01:35:28.017Z,23.50
2022-08-21T01:37:58.990Z,23.30
2022-08-21T01:40:30.137Z,23.30
2022-08-21T01:43:01.155Z,23.20
2022-08-21T01:45:32.205Z,22.90
2022-08-21T01:48:03.797Z,23.00
2022-08-21T01:50:35.168Z,22.90
2022-08-21T01:53:06.601Z,22.70
2022-08-21T01:55:37.546Z,22.80
2022-08-21T01:58:08.640Z,22.80
2022-08-21T02:00:39.587Z,22.70
2022-08-21T02:03:10.500Z,22.80
2022-08-21T02:05:41.421Z,22.40
2022-08-21T02:08:12.550Z,22.40
2022-08-21T02:10:43.632Z,22.30
2022-08-21T02:13:20.472Z,22.50
2022-08-21T02:15:51.461Z,22.20
2022-08-21T02:18:22.379Z,22.10
2022-08-21T02:20:56.696Z,22.30
2022-08-21T02:23:27.872Z,22.10
2022-08-21T02:26:01.021Z,22.30
2022-08-21T02:28:32.016Z,22.50
2022-08-21T02:31:04.572Z,22.30
2022-08-21T02:33:35.624Z,22.30
2022-08-21T02:36:07.802Z,22.20
2022-08-21T02:38:42.156Z,22.10
2022-08-21T02:41:21.891Z,21.70
2022-08-21T02:43:52.889Z,21.90
2022-08-21T02:46:23.907Z,21.80
2022-08-21T02:48:54.800Z,21.90
2022-08-21T02:51:26.074Z,21.80
2022-08-21T02:53:56.962Z,22.00
2022-08-21T02:56:31.516Z,22.00
2022-08-21T02:59:02.652Z,22.20
2022-08-21T03:01:33.641Z,22.30
2022-08-21T03:04:04.728Z,22.20
2022-08-21T03:06:35.610Z,22.20
2022-08-21T03:09:06.812Z,22.20
2022-08-21T03:11:37.909Z,22.40
2022-08-21T03:14:09.229Z,22.10
2022-08-21T03:16:40.128Z,21.90
2022-08-21T03:19:14.039Z,21.80
2022-08-21T03:21:44.917Z,21.70
2022-08-21T03:24:15.851Z,21.80
2022-08-21T03:26:49.662Z,21.50
2022-08-21T03:29:20.903Z,21.50
2022-08-21T03:31:53.468Z,21.40
2022-08-21T03:34:24.311Z,21.60
2022-08-21T03:36:55.181Z,21.50
2022-08-21T03:39:26.051Z,21.70
2022-08-21T03:41:56.940Z,21.50
2022-08-21T03:44:29.971Z,21.50
2022-08-21T03:47:01.643Z,21.20
2022-08-21T03:49:34.394Z,21.30
2022-08-21T03:52:05.995Z,21.50
2022-08-21T03:54:36.898Z,21.30
2022-08-21T03:57:08.684Z,21.40
2022-08-21T03:59:40.284Z,21.20
2022-08-21T04:02:11.991Z,21.50
2022-08-21T04:04:42.898Z,21.30
2022-08-21T04:07:13.741Z,21.60
2022-08-21T04:09:44.664Z,21.50
2022-08-21T04:12:15.517Z,21.40
2022-08-21T04:14:46.466Z,21.40
2022-08-21T04:17:17.711Z,21.50
2022-08-21T04:19:53.537Z,21.50
2022-08-21T04:22:24.750Z,21.60
2022-08-21T04:24:55.824Z,21.50
2022-08-21T04:27:26.676Z,22.00
2022-08-21T04:29:57.610Z,21.50
2022-08-21T04:32:28.955Z,21.60
2022-08-21T04:35:08.438Z,20.70
2022-08-21T04:37:42.307Z,21.50
2022-08-21T04:40:16.319Z,21.20
2022-08-21T04:42:57.985Z,21.10
2022-08-21T04:45:36.312Z,21.70
2022-08-21T04:48:13.857Z,21.70
2022-08-21T04:51:08.076Z,21.90
2022-08-21T04:53:49.329Z,21.40
2022-08-21T04:56:25.830Z,21.50
2022-08-21T04:59:03.899Z,21.50
2022-08-21T05:01:38.833Z,21.40
2022-08-21T05:04:15.764Z,21.60
2022-08-21T05:06:49.275Z,21.50
2022-08-21T05:09:21.651Z,21.50
2022-08-21T05:11:53.811Z,21.50
2022-08-21T05:14:26.124Z,21.40
2022-08-21T05:16:57.590Z,21.50
2022-08-21T05:19:28.647Z,21.30
2022-08-21T05:21:59.604Z,21.40
2022-08-21T05:24:30.657Z,21.60
2022-08-21T05:27:02.058Z,21.60
2022-08-21T05:29:35.420Z,21.60
2022-08-21T05:32:14.248Z,21.60
2022-08-21T05:34:46.444Z,21.60
2022-08-21T05:37:17.535Z,21.70
2022-08-21T05:40:05.217Z,21.70
2022-08-21T05:42:39.360Z,22.00
2022-08-21T05:45:10.743Z,21.60
2022-08-21T05:47:41.616Z,22.10
2022-08-21T05:50:12.763Z,22.00
2022-08-21T05:52:43.701Z,22.50
2022-08-21T05:55:14.978Z,22.50
2022-08-21T05:57:45.838Z,22.90
2022-08-21T06:00:17.636Z,22.60
2022-08-21T06:02:51.440Z,22.50
2022-08-21T06:05:36.398Z,22.70
2022-08-21T06:08:09.056Z,23.00
2022-08-21T06:10:40.346Z,23.10
2022-08-21T06:13:12.383Z,22.80
2022-08-21T06:15:43.846Z,23.10
2022-08-21T06:18:15.677Z,23.20
2022-08-21T06:20:46.673Z,23.40
2022-08-21T06:23:17.584Z,23.20
2022-08-21T06:25:48.507Z,23.20
2022-08-21T06:28:19.663Z,23.20
2022-08-21T06:30:51.016Z,23.50
2022-08-21T06:33:22.024Z,23.70
2022-08-21T06:35:52.975Z,23.90
2022-08-21T06:38:23.895Z,24.00
2022-08-21T06:40:54.869Z,23.70
2022-08-21T06:43:35.699Z,23.70
2022-08-21T06:46:10.959Z,23.90
2022-08-21T06:48:41.885Z,23.90
2022-08-21T06:51:13.063Z,24.10
2022-08-21T06:53:45.550Z,24.20
2022-08-21T06:56:16.549Z,24.10
2022-08-21T06:58:47.795Z,24.20
2022-08-21T07:01:26.678Z,24.60
2022-08-21T07:03:57.613Z,24.60
2022-08-21T07:06:28.607Z,24.70
2022-08-21T07:09:00.282Z,24.70
2022-08-21T07:11:31.344Z,24.90
2022-08-21T07:14:08.192Z,25.20
2022-08-21T07:16:39.161Z,24.90
2022-08-21T07:19:13.725Z,25.10
2022-08-21T07:21:44.771Z,25.00
2022-08-21T07:24:15.844Z,25.30
2022-08-21T07:26:46.769Z,25.20
2022-08-21T07:29:18.390Z,25.00
2022-08-21T07:31:49.527Z,25.10
2022-08-21T07:34:21.668Z,25.20
2022-08-21T07:36:53.092Z,25.20
2022-08-21T07:39:24.312Z,25.40
2022-08-21T07:41:55.281Z,25.50
2022-08-21T07:44:28.677Z,25.70
2022-08-21T07:46:59.735Z,25.60
2022-08-21T07:49:30.641Z,25.70
2022-08-21T07:52:02.254Z,26.10
2022-08-21T07:54:34.565Z,26.30
2022-08-21T07:57:05.920Z,26.30
2022-08-21T07:59:36.916Z,26.20
2022-08-21T08:02:07.855Z,26.50
2022-08-21T08:04:38.730Z,26.70
2022-08-21T08:07:21.966Z,26.90
2022-08-21T08:09:52.958Z,26.80
2022-08-21T08:12:24.038Z,26.80
2022-08-21T08:14:54.937Z,26.70
2022-08-21T08:17:26.779Z,26.70
2022-08-21T08:19:57.868Z,27.10
2022-08-21T08:22:29.079Z,27.40
2022-08-21T08:25:00.710Z,27.40
2022-08-21T08:27:31.948Z,27.50
2022-08-21T08:30:04.342Z,27.50
2022-08-21T08:32:37.452Z,27.30
2022-08-21T08:35:10.091Z,27.40
2022-08-21T08:37:42.294Z,27.50
2022-08-21T08:40:43.210Z,27.90
2022-08-21T08:43:15.052Z,28.20
2022-08-21T08:45:52.370Z,27.80
2022-08-21T08:48:53.875Z,28.00
2022-08-21T08:51:56.242Z,28.00
2022-08-21T08:57:20.365Z,28.30
2022-08-21T08:59:57.116Z,28.30
2022-08-21T09:02:31.697Z,28.40
2022-08-21T09:05:02.996Z,28.60
2022-08-21T09:08:05.362Z,28.70
2022-08-21T09:10:51.711Z,28.80
2022-08-21T09:13:55.318Z,28.80
2022-08-21T09:16:55.403Z,28.90
2022-08-21T09:19:51.064Z,29.00
2022-08-21T09:22:58.521Z,28.60
2022-08-21T09:25:47.315Z,28.50
2022-08-21T09:28:18.162Z,28.90
2022-08-21T09:30:49.944Z,28.20
2022-08-21T09:33:21.513Z,29.10
2022-08-21T09:35:58.743Z,29.10
2022-08-21T09:38:34.731Z,28.80
2022-08-21T09:41:11.363Z,28.50
2022-08-21T09:43:53.737Z,29.20
2022-08-21T09:46:27.406Z,29.60
2022-08-21T09:49:02.445Z,29.80
2022-08-21T09:51:37.845Z,29.60
2022-08-21T09:54:12.763Z,30.00
2022-08-21T09:57:18.593Z,28.70
2022-08-21T09:59:49.707Z,29.60
2022-08-21T10:02:30.447Z,29.90
2022-08-21T10:05:18.295Z,30.10
2022-08-21T10:07:49.776Z,30.20
2022-08-21T10:10:28.547Z,30.40
2022-08-21T10:13:41.154Z,30.60
2022-08-21T10:16:45.347Z,30.40
2022-08-21T10:20:01.889Z,30.70
2022-08-21T10:23:11.268Z,30.60
2022-08-21T10:25:57.060Z,30.30
2022-08-21T10:29:09.084Z,30.70
2022-08-21T10:31:45.714Z,30.80
2022-08-21T10:34:41.337Z,31.10
2022-08-21T10:37:36.293Z,30.10
2022-08-21T10:40:19.397Z,30.90
2022-08-21T10:43:02.136Z,30.50
2022-08-21T10:46:00.671Z,30.40
2022-08-21T10:49:19.274Z,30.90
2022-08-21T10:52:19.907Z,31.20
2022-08-21T10:54:57.906Z,31.20
2022-08-21T10:57:58.723Z,31.30
2022-08-21T11:00:37.482Z,30.90
2022-08-21T11:03:37.357Z,30.10
2022-08-21T11:06:17.236Z,31.30
2022-08-21T11:08:58.371Z,31.30
2022-08-21T11:11:50.167Z,32.30
2022-08-21T11:14:49.951Z,33.20
2022-08-21T11:17:33.429Z,33.80
2022-08-21T11:20:15.300Z,36.00
2022-08-21T11:23:02.995Z,35.90
2022-08-21T11:25:53.676Z,36.30
2022-08-21T11:28:52.106Z,35.60
2022-08-21T11:31:44.921Z,35.90
2022-08-21T11:34:41.570Z,36.10
2022-08-21T11:37:59.365Z,35.70
2022-08-21T11:40:56.364Z,34.90
2022-08-21T11:43:47.436Z,34.90
2022-08-21T11:46:36.201Z,35.70
2022-08-21T11:49:45.870Z,34.40
2022-08-21T11:52:33.855Z,34.60
2022-08-21T11:55:36.639Z,34.70
2022-08-21T11:58:41.141Z,33.40
2022-08-21T12:01:26.737Z,34.50
2022-08-21T12:04:05.290Z,34.50
2022-08-21T12:06:42.517Z,35.10
2022-08-21T12:09:25.614Z,35.50
2022-08-21T12:12:06.257Z,35.50
2022-08-21T12:14:49.790Z,35.60
2022-08-21T12:17:25.392Z,35.70
2022-08-21T12:20:03.405Z,35.50
2022-08-21T12:22:41.985Z,34.90
2022-08-21T12:25:21.943Z,34.80
2022-08-21T12:28:04.235Z,35.60
2022-08-21T12:30:46.519Z,35.20
2022-08-21T12:33:27.446Z,35.20
2022-08-21T12:36:22.413Z,35.60
2022-08-21T12:39:01.292Z,35.70
2022-08-21T12:42:01.782Z,35.80
2022-08-21T12:44:44.773Z,35.10
2022-08-21T12:47:31.214Z,35.30
2022-08-21T12:50:14.759Z,35.90
2022-08-21T12:53:24.304Z,35.60
2022-08-21T12:56:00.822Z,35.60
2022-08-21T12:58:32.531Z,35.50
2022-08-21T13:01:25.811Z,35.20
2022-08-21T13:04:04.349Z,36.00
2022-08-21T13:06:43.019Z,36.10
2022-08-21T13:09:23.410Z,36.70
2022-08-21T13:11:55.079Z,35.90
2022-08-21T13:14:45.087Z,36.20
2022-08-21T13:17:25.576Z,35.00
2022-08-21T13:19:59.836Z,35.40
2022-08-21T13:22:35.094Z,36.00
2022-08-21T13:25:15.118Z,35.90
2022-08-21T13:27:59.137Z,36.40
2022-08-21T13:30:31.655Z,35.90
2022-08-21T13:33:12.301Z,36.40
2022-08-21T13:35:51.517Z,36.00
2022-08-21T13:38:27.490Z,36.10
2022-08-21T13:41:09.480Z,36.20
2022-08-21T13:43:49.875Z,35.90
2022-08-21T13:46:25.661Z,35.70
2022-08-21T13:48:57.510Z,35.60
2022-08-21T13:51:28.780Z,36.10
2022-08-21T13:54:00.123Z,36.80
2022-08-21T13:56:43.328Z,36.60
2022-08-21T13:59:36.701Z,36.90
2022-08-21T14:02:24.876Z,37.00
2022-08-21T14:05:00.337Z,37.10
2022-08-21T14:07:36.618Z,36.40
2022-08-21T14:10:20.435Z,37.20
2022-08-21T14:12:55.571Z,36.80
2022-08-21T14:15:31.443Z,36.50
2022-08-21T14:18:20.883Z,36.70
2022-08-21T14:20:52.189Z,37.10
2022-08-21T14:23:28.409Z,36.90
2022-08-21T14:26:06.269Z,37.30
2022-08-21T14:28:42.704Z,36.30
2022-08-21T14:31:18.138Z,37.00
2022-08-21T14:33:50.655Z,37.40
2022-08-21T14:36:21.599Z,37.60
2022-08-21T14:38:53.127Z,37.10
2022-08-21T14:41:28.694Z,37.70
2022-08-21T14:44:09.275Z,37.30
2022-08-21T14:46:43.995Z,37.10
2022-08-21T14:49:29.767Z,37.30
2022-08-21T14:52:00.822Z,36.90
2022-08-21T14:54:33.916Z,36.20
2022-08-21T14:57:10.166Z,37.30
2022-08-21T14:59:41.429Z,37.50
2022-08-21T15:02:12.869Z,37.00
2022-08-21T15:04:45.257Z,36.80
2022-08-21T15:07:18.191Z,37.70
2022-08-21T15:09:49.547Z,37.40
2022-08-21T15:12:20.990Z,37.90
2022-08-21T15:14:52.841Z,38.30
2022-08-21T15:17:24.327Z,37.60
2022-08-21T15:19:55.657Z,37.30
2022-08-21T15:22:27.911Z,37.30
2022-08-21T15:24:59.681Z,36.80
2022-08-21T15:27:31.131Z,37.40
2022-08-21T15:30:05.116Z,37.00
2022-08-21T15:32:36.033Z,37.10
2022-08-21T15:35:08.029Z,37.30
2022-08-21T15:37:39.085Z,37.10
2022-08-21T15:40:11.800Z,37.30
2022-08-21T15:42:44.808Z,37.50
2022-08-21T15:45:16.352Z,38.50
2022-08-21T15:47:50.456Z,37.70
2022-08-21T15:50:22.073Z,37.40
2022-08-21T15:52:53.495Z,37.70
2022-08-21T15:55:26.437Z,37.80
2022-08-21T15:57:59.200Z,37.70
2022-08-21T16:00:35.813Z,37.40
2022-08-21T16:03:08.102Z,37.70
2022-08-21T16:05:39.117Z,37.40
2022-08-21T16:08:11.823Z,38.20
2022-08-21T16:10:43.986Z,38.00
2022-08-21T16:13:26.074Z,37.80
2022-08-21T16:15:57.513Z,37.60
2022-08-21T16:18:28.972Z,37.70
2022-08-21T16:21:00.170Z,37.40
2022-08-21T16:23:31.632Z,37.30
2022-08-21T16:26:07.719Z,37.60
2022-08-21T16:28:44.117Z,38.20
2022-08-21T16:31:15.734Z,37.60
2022-08-21T16:33:57.281Z,38.20
2022-08-21T16:36:29.370Z,38.60
2022-08-21T16:39:01.381Z,37.30
2022-08-21T16:41:36.469Z,37.80
2022-08-21T16:44:08.186Z,37.10
2022-08-21T16:46:43.229Z,37.60
2022-08-21T16:49:14.671Z,37.30
2022-08-21T16:51:46.035Z,37.90
2022-08-21T16:54:17.331Z,38.40
2022-08-21T16:56:48.632Z,37.10
2022-08-21T16:59:20.121Z,37.00
2022-08-21T17:01:54.365Z,36.70
2022-08-21T17:04:28.055Z,36.10
2022-08-21T17:06:59.195Z,36.40
2022-08-21T17:09:30.338Z,36.10
2022-08-21T17:12:01.543Z,36.10
2022-08-21T17:14:33.084Z,36.50
2022-08-21T17:17:07.793Z,36.30
2022-08-21T17:19:39.477Z,36.60
2022-08-21T17:22:11.526Z,36.70
2022-08-21T17:24:42.859Z,36.40
2022-08-21T17:27:14.077Z,36.80
2022-08-21T17:29:45.478Z,36.40
2022-08-21T17:32:18.861Z,35.80
2022-08-21T17:34:50.402Z,35.40
2022-08-21T17:37:23.069Z,35.30
2022-08-21T17:39:55.482Z,34.90
2022-08-21T17:42:27.291Z,35.00
2022-08-21T17:44:59.203Z,34.60
2022-08-21T17:47:30.771Z,34.50
2022-08-21T17:50:02.097Z,34.10
2022-08-21T17:52:34.318Z,34.00
2022-08-21T17:55:06.617Z,33.60
2022-08-21T17:57:39.604Z,33.60
2022-08-21T18:00:14.950Z,33.40
2022-08-21T18:02:51.269Z,33.40
2022-08-21T18:05:22.422Z,33.10
2022-08-21T18:07:54.559Z,32.90
2022-08-21T18:10:25.993Z,32.80
2022-08-21T18:12:58.515Z,32.60
2022-08-21T18:15:31.371Z,32.40
2022-08-21T18:18:03.837Z,32.30
2022-08-21T18:20:34.897Z,32.40
2022-08-21T18:23:05.823Z,32.00
2022-08-21T18:25:37.268Z,31.90
2022-08-21T18:28:08.688Z,31.70
2022-08-21T18:30:43.105Z,31.50
2022-08-21T18:33:15.332Z,31.30
2022-08-21T18:35:46.485Z,31.30
2022-08-21T18:38:21.247Z,31.20
2022-08-21T18:40:56.097Z,31.00
2022-08-21T18:43:27.908Z,30.90
2022-08-21T18:45:59.037Z,30.70
2022-08-21T18:48:30.210Z,30.70
2022-08-21T18:51:01.484Z,30.40
2022-08-21T18:53:32.759Z,30.20
2022-08-21T18:56:06.170Z,30.20
2022-08-21T18:58:37.848Z,30.00
2022-08-21T19:01:09.041Z,30.00
2022-08-21T19:03:40.712Z,29.80
2022-08-21T19:06:11.936Z,29.40
2022-08-21T19:08:43.222Z,29.50
2022-08-21T19:11:14.502Z,29.30
2022-08-21T19:13:55.044Z,29.20
2022-08-21T19:16:26.224Z,29.00
2022-08-21T19:21:49.529Z,28.90
2022-08-21T19:27:14.471Z,29.00
2022-08-21T19:29:45.859Z,29.00
2022-08-21T19:32:16.832Z,29.40
2022-08-21T19:34:50.019Z,29.70
2022-08-21T19:37:22.225Z,29.80
2022-08-21T19:39:53.825Z,29.00
2022-08-21T19:42:28.694Z,28.70
2022-08-21T19:45:16.096Z,28.40
2022-08-21T19:47:50.893Z,28.40
2022-08-21T19:50:22.054Z,28.40
2022-08-21T19:52:53.080Z,28.30
2022-08-21T19:55:24.890Z,28.10
2022-08-21T19:57:56.073Z,28.10
2022-08-21T20:00:27.068Z,28.40
2022-08-21T20:02:58.107Z,28.40
2022-08-21T20:05:39.577Z,28.30
2022-08-21T20:08:20.344Z,28.10
2022-08-21T20:10:52.859Z,27.60
2022-08-21T20:13:24.467Z,27.20
2022-08-21T20:15:55.510Z,27.60
2022-08-21T20:18:27.191Z,27.60
2022-08-21T20:20:58.175Z,27.50
2022-08-21T20:26:20.415Z,26.80
2022-08-21T20:28:51.734Z,26.80
2022-08-21T20:31:24.641Z,27.00
2022-08-21T20:33:59.469Z,27.40
2022-08-21T20:36:30.635Z,26.90
2022-08-21T20:39:01.551Z,27.10
2022-08-21T20:41:33.397Z,26.80
2022-08-21T20:44:05.371Z,26.90
2022-08-21T20:46:36.409Z,26.70
2022-08-21T20:49:09.342Z,26.70
2022-08-21T20:51:49.482Z,26.70
2022-08-21T20:54:44.857Z,26.30
2022-08-21T20:57:27.345Z,26.30
2022-08-21T21:00:14.555Z,26.60
2022-08-21T21:03:13.238Z,26.20
2022-08-21T21:05:59.558Z,26.90
2022-08-21T21:08:58.774Z,27.10
2022-08-21T21:11:38.195Z,27.30
2022-08-21T21:14:23.437Z,27.50
2022-08-21T21:17:01.436Z,27.20
2022-08-21T21:19:44.751Z,26.50
2022-08-21T21:22:38.277Z,26.40
2022-08-21T21:25:39.781Z,26.50
2022-08-21T21:28:53.886Z,26.20
2022-08-21T21:31:28.579Z,26.00
2022-08-21T21:34:00.668Z,25.80
2022-08-21T21:36:56.475Z,25.90
2022-08-21T21:39:52.978Z,26.20
2022-08-21T21:42:49.321Z,26.10
2022-08-21T21:45:32.089Z,25.80
2022-08-21T21:48:21.494Z,25.50
2022-08-21T21:53:51.927Z,25.50
2022-08-21T21:56:34.009Z,25.70
2022-08-21T21:59:35.937Z,25.70
2022-08-21T22:02:25.188Z,25.40
2022-08-21T22:05:14.542Z,25.40
2022-08-21T22:07:57.941Z,25.30
2022-08-21T22:10:43.841Z,25.40
2022-08-21T22:14:05.242Z,25.40
2022-08-21T22:16:37.193Z,25.60
2022-08-21T22:19:31.426Z,25.60
2022-08-21T22:22:13.768Z,25.50
2022-08-21T22:24:49.679Z,25.50
2022-08-21T22:27:34.021Z,25.70
2022-08-21T22:30:16.126Z,25.70
2022-08-21T22:32:56.760Z,25.60
2022-08-21T22:35:32.967Z,25.40
2022-08-21T22:38:36.230Z,25.10
2022-08-21T22:41:28.640Z,25.30
2022-08-21T22:44:04.459Z,25.20
2022-08-21T22:46:58.993Z,25.00
2022-08-21T22:49:30.245Z,25.10
2022-08-21T22:52:47.743Z,25.00
2022-08-21T22:55:38.606Z,25.00
2022-08-21T22:58:22.264Z,25.00
2022-08-21T23:01:23.548Z,24.80
2022-08-21T23:03:57.940Z,25.10
2022-08-21T23:06:52.605Z,25.30
2022-08-21T23:09:53.167Z,25.00
2022-08-21T23:15:23.238Z,25.10
2022-08-21T23:18:00.936Z,25.30
2022-08-21T23:21:19.228Z,25.40
2022-08-21T23:24:29.926Z,25.80
2022-08-21T23:27:41.521Z,25.40
2022-08-21T23:30:22.487Z,25.10
2022-08-21T23:33:15.280Z,25.30
2022-08-21T23:36:48.174Z,25.70
2022-08-21T23:39:46.236Z,25.50
2022-08-21T23:42:53.125Z,25.20
2022-08-21T23:45:49.105Z,24.80
2022-08-21T23:48:47.121Z,24.90
2022-08-21T23:51:41.256Z,24.80
2022-08-21T23:54:58.581Z,24.70
2022-08-21T23:58:07.662Z,24.90
